Diretta Meteo Beijing, Cinamercoledì 22 maggio ore 17:30

Mappa
Sereno 34 °C Sereno 24 Ore: T.min 11 T.max 35
Ponente Sud/Sud-Ovest Km/h 14.4 Punto di rugiada: 6 °C Umidità: 17% Visibilità: 10 Km
Il sole sorge alle: 04:52 Il sole tramonta alle: 19:30
22 Maggio 2019 17:30 tempo osservato: Sereno Sereno 34 17 998 vento: Nord S/SO 14.4
22 Maggio 2019 17:00 tempo osservato: Sereno Sereno 35 15 998 vento: Nord S 14.4
22 Maggio 2019 16:30 tempo osservato: Sereno Sereno 35 15 998 vento: Nord S/SO 14.4
22 Maggio 2019 16:00 tempo osservato: Sereno Sereno 35 15 999 vento: Nord S 18
22 Maggio 2019 15:30 tempo osservato: Sereno Sereno 35 14 999 vento: Nord N 14.4
22 Maggio 2019 15:00 tempo osservato: Sereno Sereno 35 14 999 vento: Nord S/SE 10.8
22 Maggio 2019 14:30 tempo osservato: Sereno Sereno 33 21 1000 vento: Nord N 7.2
22 Maggio 2019 14:00 tempo osservato: Sereno Sereno 33 17 1001 vento: Nord E/SE 10.8
22 Maggio 2019 13:30 tempo osservato: Sereno Sereno 31 19 1001 vento: Nord E/SE 10.8
22 Maggio 2019 13:00 tempo osservato: Sereno Sereno 31 18 1001 vento: Nord N 7.2
22 Maggio 2019 12:30 tempo osservato: Sereno Sereno 31 19 1002 vento: Nord N 7.2
22 Maggio 2019 12:00 tempo osservato: Sereno Sereno 31 16 1002 vento: Nord N 3.6
22 Maggio 2019 11:30 tempo osservato: Sereno Sereno 31 15 1003 vento: Nord N 3.6
22 Maggio 2019 11:00 tempo osservato: Sereno Sereno 30 16 1003 vento: Nord N 7.2
22 Maggio 2019 10:30 tempo osservato: Sereno Sereno 29 21 1003 vento: Nord N 7.2
22 Maggio 2019 10:00 tempo osservato: Sereno Sereno 28 23 1003 vento: Nord N 7.2
22 Maggio 2019 09:30 tempo osservato: Sereno Sereno 26 24 1004 vento: Nord N 3.6
22 Maggio 2019 09:00 tempo osservato: Sereno Sereno 25 27 1004 vento: Nord N 3.6
22 Maggio 2019 08:30 tempo osservato: Sereno Sereno 25 29 1004 vento: Nord N 7.2
22 Maggio 2019 08:00 tempo osservato: Sereno Sereno 22 37 1004 vento: Nord N 7.2
22 Maggio 2019 07:30 tempo osservato: Sereno Sereno 21 37 1004 vento: Nord N 10.8
22 Maggio 2019 07:00 tempo osservato: Sereno Sereno 20 39 1004 vento: Nord N 7.2
22 Maggio 2019 06:30 tempo osservato: Sereno Sereno 17 63 1004 vento: Nord N 3.6
22 Maggio 2019 06:00 tempo osservato: Sereno Sereno 14 82 1004 vento: Nord N 7.2
22 Maggio 2019 05:30 tempo osservato: Sereno Sereno 11 81 1004 vento: Nord N 0
22 Maggio 2019 05:00 tempo osservato: Sereno Sereno 11 81 1003 vento: Nord N 0
22 Maggio 2019 04:30 tempo osservato: Sereno Sereno 11 81 1003 vento: Nord N 3.6
22 Maggio 2019 04:00 tempo osservato: Sereno Sereno 12 76 1003 vento: Nord N 7.2
22 Maggio 2019 03:30 tempo osservato: Sereno Sereno 12 76 1004 vento: Nord N 3.6
22 Maggio 2019 03:00 tempo osservato: Sereno Sereno 12 76 1004 vento: Nord N 10.8
22 Maggio 2019 02:30 tempo osservato: Sereno Sereno 13 76 1004 vento: Nord N 7.2
22 Maggio 2019 02:00 tempo osservato: Sereno Sereno 13 76 1004 vento: Nord N 7.2
22 Maggio 2019 01:30 tempo osservato: Sereno Sereno 14 71 1004 vento: Nord N 7.2
22 Maggio 2019 01:00 tempo osservato: Sereno Sereno 15 58 1004 vento: Nord N 7.2
22 Maggio 2019 00:30 tempo osservato: Sereno Sereno 14 76 1004 vento: Nord N 7.2
22 Maggio 2019 00:00 tempo osservato: Sereno Sereno 14 76 1004 vento: Nord N 3.6
21 Maggio 2019 23:30 tempo osservato: Sereno Sereno 15 72 1004 vento: Nord N 3.6
21 Maggio 2019 23:00 tempo osservato: Sereno Sereno 15 72 1004 vento: Nord N 3.6
21 Maggio 2019 22:30 tempo osservato: Sereno Sereno 16 67 1004 vento: Nord N 7.2
21 Maggio 2019 22:00 tempo osservato: Sereno Sereno 16 67 1004 vento: Nord N 3.6
21 Maggio 2019 21:30 tempo osservato: Sereno Sereno 19 52 1004 vento: Nord N 3.6
21 Maggio 2019 21:00 tempo osservato: Sereno Sereno 20 45 1004 vento: Nord N 7.2
21 Maggio 2019 20:30 tempo osservato: Sereno Sereno 21 46 1003 vento: Nord N 3.6
21 Maggio 2019 20:00 tempo osservato: Sereno Sereno 22 40 1003 vento: Nord N 7.2
21 Maggio 2019 19:30 tempo osservato: Sereno Sereno 27 24 1002 vento: Nord S/SO 10.8
21 Maggio 2019 19:00 tempo osservato: Sereno Sereno 29 20 1002 vento: Nord N 18
21 Maggio 2019 18:30 tempo osservato: Sereno Sereno 29 20 1001 vento: Nord S 10.8
21 Maggio 2019 18:00 tempo osservato: Sereno Sereno 30 19 1001 vento: Nord NE 10.8